AirNav   Air Wisconsin Up To $57,000 Bonus
 
 1005 users online  

38FA Blue Springs Airport
Madison, Florida, USA

GOING TO MADISON?


FAA INFORMATION EFFECTIVE 07 NOVEMBER 2019

Location

FAA Identifier: 38FA
Lat/Long: 30-29-00.7660N 083-14-59.5150W
30-29.012767N 083-14.991917W
30.4835461,-83.2498653
(estimated)
Elevation: 95 ft. / 29 m (estimated)
Variation: 02W (1980)
From city: 3 miles S of MADISON, FL
Time zone: UTC -5 (UTC -4 during Daylight Saving Time)
Zip code: 32340

Airport Operations

Airport use: Private use. Permission required prior to landing
Activation date: 12/1986
Control tower: no
ARTCC: JACKSONVILLE CENTER
FSS: GAINESVILLE FLIGHT SERVICE STATION
Attendance: UNATNDD
Wind indicator: yes
Segmented circle: no

Airport Communications

WX AWOS-3 at 24J (16 nm SE): 118.225 (386-362-1731)
WX ASOS at VLD (18 nm N): 126.225 (229-245-8746)

Nearby radio navigation aids

VOR radial/distance  VOR name  Freq  Var
OTKr177/17.9VALDOSTA VOR/DME114.8002W
GEFr097/27.9GREENVILLE VORTAC109.0001E
TAYr271/36.1TAYLOR VORTAC112.9003W

 
NDB name  Hdg/Dist  Freq  Var  ID
LAKE CITY300/39.120403WLCQ .-.. -.-. --.-

Airport Services

Runway Information

Runway 18/36

Dimensions: 2400 x 50 ft. / 732 x 15 m
Surface: turf
RUNWAY 18  RUNWAY 36
Traffic pattern: leftleft
Displaced threshold: 400 ft.no

Airport Ownership and Management from official FAA records

Ownership: Privately-owned
Owner: BLUE SPRINGS PROP OWNERS ASSN
PO BOX 1776
GAINESVILLE, FL 32602
Phone 352-334-1976

Additional Remarks

OWNERS DESIRE ARPT NOT BE CHARTED.
NO TKOF ON RY 18 & NO LNDG ON RY 36.
FOR CD CTC VALDOSTA APCH AT 229-257-2207, WHEN APCH CLSD CTC JACKSONVILLE ARTCC AT 904-845-1592.

Instrument Procedures

There are no published instrument procedures at 38FA.

Some nearby airports with instrument procedures:

24J - Suwannee County Airport (16 nm SE)
KVLD - Valdosta Regional Airport (18 nm N)
4J5 - Quitman Brooks County Airport (26 nm NW)
KVAD - Moody Air Force Base (29 nm N)
40J - Perry-Foley Airport (30 nm SW)
 
Loc | Ops | Rwys | IFR | FBO | Links
Com | Nav | Svcs | Stats | Notes
Area around 38FA (Blue Springs Airport)
 
Road maps at: MapQuest Bing Google
 
Aerial photo
No photo
 
Sectional chart

 
Airport distance calculator
Flying to Blue Springs Airport? Find the distance to fly.

From to 38FA

Sunrise and sunset
Times for 12-Nov-2019
 Local
(UTC-5)
 Zulu
(UTC)
Morning civil twilight06:3211:32
Sunrise06:5711:57
Sunset17:3722:37
Evening civil twilight18:0223:02

Current date and time
Zulu (UTC)  13-Nov-2019 01:52:01
Local (UTC-5)  12-Nov-2019 20:52:01
 
METAR
K24J 
16nm SE 
130135Z AUTO 35008G15KT 10SM BKN120 09/04 A3009 RMK A01
KVLD 
17nm N 
130053Z 36012G18KT 10SM BKN120 08/03 A3009 RMK AO2 SLP197 T00830028
KVAD 
29nm N 
130056Z AUTO 34014G19KT 10SM OVC120 08/03 A3008 RMK AO2 SLP188 T00800025 $
K40J 
30nm SW 
130135Z AUTO 01013G16KT 10SM BKN120 09/04 A3010 RMK AO2 T00930037
TAF
KVLD 
17nm N 
121730Z 1218/1318 30007KT 6SM -RA BR BKN007 OVC014 FM122000 33012G20KT P6SM BKN015 FM130000 36008KT P6SM SCT100 FM131400 07009KT P6SM SKC
NOTAMs
Click for the latest NOTAMs
NOTAMs are issued by the DoD/FAA and will open in a separate window not controlled by AirNav.

 

 
 

Would you like to see your business listed on this page?

 If your business provides an interesting product or service to pilots, flight crews, aircraft, or users of the Blue Springs Airport, you should consider listing it here.  To start the listing process, click on the button below
 
Add a business
 

Other Pages about Blue Springs Airport

Update a link
 
Copyright © AirNav, LLC. All rights reserved. Privacy Policy  Contact